Adamsburg, Pennsylvania
Current Conditions -  °F | °C
As of 10:45 AM on Tuesday 21 Oct 2014 (Local Time) from KLBE Reporting Station
Haze Haze  
Wind Chill: 11°   Ceiling: 900
Heat Index: 11°   Visibility: 5mi
Dew Point: 11°   Wind: 9mph
Humidity: 100%   Direction: 210°SSW
Pressure: 29.89"   Gusts: NA
Location:  40.31°N, 79.66°W
Report Text: KLBE 211445Z 21008KT 5SM BR OVC009 11/11 A2989
Loading
Personal Weather Stations






























Interactive Weather Map
Tropical Storm Tracking
New forecast layout! Learn more

10-Day Weather Forecast

Advertisements
Track Severe Weather on mobile